Time;durP1;ratioP1;P1;durP2;ratioP2;P2;SDS_P1;SDS_P2;PMS_P1;PMS_P2;Temp;Humidity;BMP_temperature;BMP_pressure;BME280_temperature;BME280_humidity;BME280_pressure;Samples;Min_cycle;Max_cycle;Signal;HPM_P1;HPM_P2
2022/01/27 00:00:38;;;;;;;38.40;18.02;;;0.50;69.00;;;;;;5072016;28;20035;-41
2022/01/27 00:06:03;;;;;;;35.05;17.33;;;0.50;69.10;;;;;;5117565;28;20092;-40
2022/01/27 00:08:46;;;;;;;34.70;16.50;;;0.50;69.20;;;;;;5117381;28;20040;-41
2022/01/27 00:11:14;;;;;;;32.38;16.83;;;0.50;69.30;;;;;;5117573;28;20123;-41
2022/01/27 00:13:58;;;;;;;35.83;18.13;;;0.50;69.30;;;;;;5117858;28;20420;-32
2022/01/27 00:16:30;;;;;;;37.47;17.17;;;0.50;69.30;;;;;;5117250;28;20036;-39
2022/01/27 00:18:57;;;;;;;43.22;19.10;;;0.50;69.20;;;;;;5117939;28;20380;-38
2022/01/27 00:21:28;;;;;;;45.53;18.83;;;0.50;69.20;;;;;;5117281;28;20031;-40
2022/01/27 00:23:54;;;;;;;34.53;16.63;;;0.40;69.00;;;;;;5117959;28;20395;-41
2022/01/27 00:26:20;;;;;;;39.05;18.52;;;0.40;68.90;;;;;;5117254;28;20062;-33
2022/01/27 00:28:47;;;;;;;29.55;14.63;;;0.40;69.00;;;;;;5117645;28;20296;-41
2022/01/27 00:31:14;;;;;;;35.17;16.15;;;0.50;69.00;;;;;;5116888;28;20327;-40
2022/01/27 00:33:39;;;;;;;37.58;16.33;;;0.50;68.90;;;;;;5117619;28;20093;-37
2022/01/27 00:36:06;;;;;;;35.10;15.70;;;0.50;69.00;;;;;;5116888;28;20028;-42
2022/01/27 00:38:32;;;;;;;32.45;15.73;;;0.50;68.90;;;;;;5117401;28;20096;-41
2022/01/27 00:40:57;;;;;;;30.65;15.15;;;0.50;68.80;;;;;;5116935;28;20073;-42
2022/01/27 00:43:23;;;;;;;27.27;14.07;;;0.50;68.70;;;;;;5117280;28;20312;-41
2022/01/27 00:45:49;;;;;;;31.15;14.55;;;0.50;68.60;;;;;;5117048;28;20110;-32
2022/01/27 00:48:17;;;;;;;28.80;13.40;;;0.50;68.50;;;;;;5117239;28;20031;-41
2022/01/27 00:50:52;;;;;;;32.15;15.30;;;0.50;69.00;;;;;;5116782;28;20027;-41
2022/01/27 00:53:55;;;;;;;28.73;14.27;;;0.50;68.40;;;;;;5117082;28;20042;-33
2022/01/27 00:56:26;;;;;;;29.98;13.65;;;0.60;68.30;;;;;;5112262;28;20059;-33
2022/01/27 01:01:21;;;;;;;33.45;15.35;;;0.50;68.10;;;;;;5116639;28;20392;-42
2022/01/27 01:03:49;;;;;;;27.88;14.25;;;0.60;68.20;;;;;;5116820;28;20055;-32
2022/01/27 01:11:31;;;;;;;27.90;14.02;;;0.50;68.00;;;;;;5116233;28;20024;-40
2022/01/27 01:16:44;;;;;;;29.80;14.35;;;0.50;68.00;;;;;;5116441;28;20027;-33
2022/01/27 01:33:05;;;;;;;38.22;17.42;;;0.40;68.50;;;;;;5116684;28;20112;-36
2022/01/27 01:35:48;;;;;;;33.15;15.63;;;0.40;68.60;;;;;;5116086;28;20038;-41
2022/01/27 01:38:26;;;;;;;27.65;14.27;;;0.40;68.70;;;;;;5116548;28;20111;-43
2022/01/27 01:40:53;;;;;;;33.30;17.63;;;0.40;68.60;;;;;;5116294;28;20040;-40
2022/01/27 01:43:20;;;;;;;35.22;17.58;;;0.40;68.50;;;;;;5116430;28;20114;-33
2022/01/27 01:45:46;;;;;;;36.75;17.10;;;0.40;68.40;;;;;;5115670;28;20301;-41
2022/01/27 01:48:15;;;;;;;33.33;15.57;;;0.40;68.40;;;;;;5116298;28;20419;-41
2022/01/27 01:50:41;;;;;;;35.53;17.02;;;0.40;68.50;;;;;;5116053;28;20377;-41
2022/01/27 01:53:07;;;;;;;32.63;16.13;;;0.30;68.40;;;;;;5116082;28;20085;-39
2022/01/27 01:55:33;;;;;;;34.85;16.77;;;0.30;68.60;;;;;;5116188;28;20035;-41
2022/01/27 01:58:00;;;;;;;33.47;16.60;;;0.30;68.80;;;;;;5116336;28;20123;-33
2022/01/27 02:00:27;;;;;;;39.40;18.23;;;0.30;68.80;;;;;;5115722;28;20110;-40
2022/01/27 02:02:54;;;;;;;39.30;19.27;;;0.30;68.70;;;;;;5116288;28;20050;-41
2022/01/27 02:05:23;;;;;;;37.58;18.27;;;0.30;68.60;;;;;;5115847;28;20110;-41
2022/01/27 02:19:18;;;;;;;42.30;20.23;;;0.10;68.40;;;;;;5119948;28;20047;-33
2022/01/27 02:21:54;;;;;;;49.22;22.23;;;0.10;69.00;;;;;;5119442;28;20027;-33
2022/01/27 02:24:23;;;;;;;49.08;22.25;;;0.00;68.60;;;;;;5119722;28;20354;-41
2022/01/27 02:26:49;;;;;;;49.80;22.17;;;0.00;68.70;;;;;;5119848;28;20030;-33
2022/01/27 02:29:20;;;;;;;52.63;22.65;;;0.00;68.80;;;;;;5119549;28;20031;-41
2022/01/27 02:31:47;;;;;;;49.03;23.20;;;0.00;68.80;;;;;;5119644;28;20028;-40
2022/01/27 02:34:13;;;;;;;53.58;22.50;;;-0.10;68.70;;;;;;5119354;28;20433;-41
2022/01/27 02:36:39;;;;;;;51.53;23.00;;;-0.10;68.80;;;;;;5119620;28;20055;-34
2022/01/27 02:39:06;;;;;;;50.47;23.30;;;-0.10;68.90;;;;;;5119900;28;20040;-33
2022/01/27 02:41:45;;;;;;;53.30;23.73;;;-0.10;69.00;;;;;;5119208;28;20296;-33
2022/01/27 02:44:24;;;;;;;55.28;27.10;;;-0.10;69.10;;;;;;5119371;28;20028;-34
2022/01/27 02:46:50;;;;;;;57.13;26.23;;;-0.10;69.20;;;;;;5119562;28;20071;-40
2022/01/27 02:49:16;;;;;;;59.67;25.73;;;-0.10;69.20;;;;;;5118996;28;20070;-33
2022/01/27 02:51:42;;;;;;;58.40;27.67;;;-0.10;69.10;;;;;;5119066;28;20347;-37
2022/01/27 02:54:07;;;;;;;64.75;27.85;;;-0.10;69.20;;;;;;5119169;28;20307;-41
2022/01/27 02:56:34;;;;;;;68.53;27.23;;;-0.10;69.30;;;;;;5119025;28;20023;-35
2022/01/27 02:59:00;;;;;;;60.63;26.67;;;-0.10;69.30;;;;;;5119488;28;20034;-40
2022/01/27 03:01:25;;;;;;;59.38;27.05;;;-0.10;69.30;;;;;;5118923;28;20375;-40
2022/01/27 03:03:51;;;;;;;64.47;28.60;;;-0.10;69.40;;;;;;5119247;28;20023;-33
2022/01/27 03:06:17;;;;;;;66.28;29.17;;;-0.10;69.40;;;;;;5119017;28;20024;-41
2022/01/27 03:08:42;;;;;;;68.07;28.40;;;-0.10;69.30;;;;;;5118791;28;20047;-41
2022/01/27 03:11:31;;;;;;;61.85;28.10;;;0.00;69.20;;;;;;5118413;28;20022;-42
2022/01/27 03:13:57;;;;;;;63.92;30.13;;;-0.10;68.90;;;;;;5119228;28;20024;-41
2022/01/27 03:16:23;;;;;;;75.93;34.38;;;-0.10;68.80;;;;;;5118728;28;20027;-43
2022/01/27 03:18:48;;;;;;;71.43;32.80;;;-0.10;68.80;;;;;;5118719;28;20084;-41
2022/01/27 03:21:16;;;;;;;74.90;31.45;;;-0.20;68.70;;;;;;5117469;28;20066;-34
2022/01/27 03:23:42;;;;;;;73.13;29.55;;;-0.20;68.80;;;;;;5118868;28;20139;-40
2022/01/27 03:26:07;;;;;;;66.70;28.55;;;-0.20;68.90;;;;;;5118547;28;20047;-35
2022/01/27 03:28:33;;;;;;;68.53;32.03;;;-0.20;68.90;;;;;;5118784;28;20067;-33
2022/01/27 03:30:59;;;;;;;69.55;30.13;;;-0.30;68.90;;;;;;5118424;28;20356;-42
2022/01/27 03:33:24;;;;;;;73.57;31.45;;;-0.30;68.90;;;;;;5118396;28;20066;-41
2022/01/27 03:35:50;;;;;;;75.45;31.50;;;-0.30;69.10;;;;;;5118473;28;20113;-33
2022/01/27 03:38:16;;;;;;;73.45;33.35;;;-0.30;69.20;;;;;;5118666;28;20485;-42
2022/01/27 03:40:41;;;;;;;70.97;32.28;;;-0.30;69.30;;;;;;5118072;28;20050;-43
2022/01/27 03:43:09;;;;;;;80.32;33.80;;;-0.40;69.30;;;;;;5118579;28;20055;-34
2022/01/27 03:45:35;;;;;;;83.40;36.60;;;-0.40;69.40;;;;;;5117802;28;20031;-34
2022/01/27 03:48:02;;;;;;;102.28;44.00;;;-0.30;69.50;;;;;;5118165;28;20035;-34
2022/01/27 03:50:27;;;;;;;110.28;44.13;;;-0.40;69.40;;;;;;5117713;28;20062;-33
2022/01/27 03:52:53;;;;;;;138.98;53.78;;;-0.40;69.50;;;;;;5118328;28;20055;-34
2022/01/27 03:55:19;;;;;;;108.80;46.67;;;-0.40;69.60;;;;;;5117991;28;20436;-42
2022/01/27 03:57:44;;;;;;;126.65;50.63;;;-0.40;69.70;;;;;;5117981;28;20044;-33
2022/01/27 04:00:11;;;;;;;180.07;70.05;;;-0.30;69.70;;;;;;5117567;28;20034;-41
2022/01/27 04:02:40;;;;;;;259.10;103.88;;;-0.40;69.70;;;;;;5118010;28;20032;-34
2022/01/27 04:05:07;;;;;;;206.85;82.78;;;-0.30;69.70;;;;;;5117867;28;20058;-41
2022/01/27 04:07:33;;;;;;;160.95;68.57;;;-0.40;70.20;;;;;;5117314;28;20086;-41
2022/01/27 04:09:59;;;;;;;109.07;43.90;;;-0.40;69.70;;;;;;5117368;28;20055;-41
2022/01/27 04:12:24;;;;;;;80.75;33.17;;;-0.30;69.80;;;;;;5117506;28;20038;-42
2022/01/27 04:14:50;;;;;;;84.97;35.75;;;-0.30;69.90;;;;;;5117257;28;20055;-33
2022/01/27 04:17:15;;;;;;;75.85;32.33;;;-0.30;69.90;;;;;;5117487;28;20312;-42
2022/01/27 04:19:41;;;;;;;75.25;30.55;;;-0.40;69.80;;;;;;5117091;28;20304;-36
2022/01/27 04:22:07;;;;;;;63.40;27.45;;;-0.40;69.90;;;;;;5117508;28;20304;-33
2022/01/27 04:24:32;;;;;;;65.50;29.55;;;-0.30;70.00;;;;;;5116882;28;20035;-33
2022/01/27 04:27:04;;;;;;;72.53;32.90;;;-0.30;70.00;;;;;;5098977;28;20019;-34
2022/01/27 04:29:33;;;;;;;60.55;25.67;;;-0.40;69.90;;;;;;5098840;28;20022;-42
2022/01/27 04:32:01;;;;;;;57.80;25.35;;;-0.40;69.90;;;;;;5117186;28;20027;-35
2022/01/27 04:34:27;;;;;;;59.75;26.02;;;-0.30;69.90;;;;;;5116937;28;20165;-41
2022/01/27 04:36:55;;;;;;;52.45;24.33;;;-0.40;69.90;;;;;;5117329;28;20019;-33
2022/01/27 04:39:34;;;;;;;47.63;22.42;;;-0.40;69.90;;;;;;5117004;28;20027;-34
2022/01/27 04:42:08;;;;;;;50.83;22.10;;;-0.40;69.90;;;;;;5117366;28;20051;-41
2022/01/27 04:44:44;;;;;;;50.65;21.60;;;-0.40;70.00;;;;;;5116524;28;20058;-42
2022/01/27 04:47:17;;;;;;;53.90;24.15;;;-0.40;70.10;;;;;;5117149;28;20028;-41
2022/01/27 04:49:43;;;;;;;50.40;21.40;;;-0.40;70.10;;;;;;5116485;28;20027;-41
2022/01/27 04:52:09;;;;;;;49.00;21.10;;;-0.40;70.20;;;;;;5116969;28;20032;-40
2022/01/27 04:54:47;;;;;;;44.65;21.20;;;-0.40;70.20;;;;;;5116699;28;20078;-33
2022/01/27 04:57:13;;;;;;;47.88;20.90;;;-0.40;70.30;;;;;;5117020;28;20340;-35
2022/01/27 04:59:42;;;;;;;48.28;21.10;;;-0.40;70.20;;;;;;5116289;28;20052;-41
2022/01/27 05:02:16;;;;;;;49.03;22.13;;;-0.40;70.20;;;;;;5116884;28;20345;-33
2022/01/27 05:04:44;;;;;;;46.05;22.50;;;-0.40;70.20;;;;;;5116438;28;20059;-33
2022/01/27 05:07:10;;;;;;;45.10;20.65;;;-0.40;70.20;;;;;;5116664;28;20070;-33
2022/01/27 05:09:37;;;;;;;45.95;20.38;;;-0.40;70.20;;;;;;5116018;28;20067;-33
2022/01/27 05:12:33;;;;;;;52.53;22.83;;;-0.40;70.20;;;;;;5116617;28;20034;-41
2022/01/27 05:14:53;;;;;;;51.08;22.13;;;-0.40;70.20;;;;;;5115219;28;20047;-40
2022/01/27 05:17:19;;;;;;;66.07;28.27;;;-0.50;70.00;;;;;;5116773;28;20031;-41
2022/01/27 05:19:47;;;;;;;74.43;32.08;;;-0.50;70.10;;;;;;5116312;28;20400;-41
2022/01/27 05:22:13;;;;;;;63.53;29.25;;;-0.50;70.00;;;;;;5116424;28;20036;-35
2022/01/27 05:24:39;;;;;;;85.00;35.83;;;-0.50;70.10;;;;;;5116285;28;20111;-40
2022/01/27 05:27:05;;;;;;;58.45;26.52;;;-0.50;70.10;;;;;;5116190;28;20111;-35
2022/01/27 05:29:30;;;;;;;53.95;24.42;;;-0.60;70.10;;;;;;5115898;28;20028;-33
2022/01/27 05:31:56;;;;;;;56.88;27.42;;;-0.60;70.20;;;;;;5116173;28;20408;-34
2022/01/27 05:34:22;;;;;;;51.63;24.75;;;-0.60;70.30;;;;;;5116048;28;20339;-41
2022/01/27 05:36:47;;;;;;;59.50;28.02;;;-0.70;70.40;;;;;;5116094;28;20028;-33
2022/01/27 05:39:13;;;;;;;48.95;23.33;;;-0.70;70.50;;;;;;5115924;28;20420;-41
2022/01/27 05:41:39;;;;;;;49.78;23.27;;;-0.70;70.60;;;;;;5115923;28;20039;-41
2022/01/27 05:44:05;;;;;;;47.90;21.90;;;-0.70;70.60;;;;;;5117137;28;20410;-33
2022/01/27 05:46:31;;;;;;;46.75;23.00;;;-0.70;70.70;;;;;;5119916;28;20430;-32
2022/01/27 05:48:56;;;;;;;49.45;24.85;;;-0.70;70.70;;;;;;5120668;28;20035;-43
2022/01/27 05:51:22;;;;;;;51.35;22.73;;;-0.70;70.80;;;;;;5120080;28;20043;-34
2022/01/27 05:53:48;;;;;;;56.08;25.50;;;-0.60;70.90;;;;;;5120433;28;20066;-40
2022/01/27 05:56:13;;;;;;;48.35;24.27;;;-0.60;70.80;;;;;;5119925;28;20038;-34
2022/01/27 05:58:39;;;;;;;50.42;24.15;;;-0.70;70.70;;;;;;5120423;28;20063;-38
2022/01/27 06:01:05;;;;;;;51.60;24.42;;;-0.70;70.70;;;;;;5119472;28;20027;-42
2022/01/27 06:03:31;;;;;;;54.05;25.77;;;-0.70;70.80;;;;;;5119946;28;20098;-34
2022/01/27 06:05:56;;;;;;;56.97;25.80;;;-0.70;70.80;;;;;;5119706;28;20107;-35
2022/01/27 06:08:22;;;;;;;54.83;24.67;;;-0.70;70.60;;;;;;5119576;28;20047;-33
2022/01/27 06:10:48;;;;;;;56.03;27.95;;;-0.70;70.60;;;;;;5119429;28;20043;-41
2022/01/27 06:13:13;;;;;;;61.67;27.85;;;-0.70;70.70;;;;;;5119879;28;20035;-40
2022/01/27 06:15:39;;;;;;;65.57;29.92;;;-0.70;70.80;;;;;;5119242;28;20455;-35
2022/01/27 06:18:05;;;;;;;57.65;26.25;;;-0.80;70.80;;;;;;5119765;28;20035;-42
2022/01/27 06:20:32;;;;;;;71.22;29.85;;;-0.80;71.00;;;;;;5119732;28;20327;-40
2022/01/27 06:22:58;;;;;;;61.33;30.58;;;-0.70;71.10;;;;;;5119749;28;20024;-40
2022/01/27 06:25:25;;;;;;;75.43;35.75;;;-0.70;71.10;;;;;;5119190;28;20042;-40
2022/01/27 06:27:51;;;;;;;78.00;37.13;;;-0.70;71.20;;;;;;5119586;28;20277;-39
2022/01/27 06:30:17;;;;;;;68.97;35.20;;;-0.60;71.30;;;;;;5119090;28;20373;-34
2022/01/27 06:32:42;;;;;;;70.00;33.38;;;-0.60;71.30;;;;;;5119170;28;20024;-35
2022/01/27 06:35:08;;;;;;;62.20;29.45;;;-0.50;71.30;;;;;;5118886;28;20036;-40
2022/01/27 06:37:34;;;;;;;59.05;27.30;;;-0.40;71.20;;;;;;5119219;28;20030;-37
2022/01/27 06:40:01;;;;;;;54.80;26.02;;;-0.40;71.10;;;;;;5119036;28;20317;-36
2022/01/27 06:42:27;;;;;;;64.55;29.83;;;-0.30;70.70;;;;;;5118958;28;20027;-33
2022/01/27 06:44:53;;;;;;;56.60;27.70;;;-0.30;70.40;;;;;;5118609;28;20032;-35
2022/01/27 06:47:19;;;;;;;56.53;25.20;;;-0.20;70.10;;;;;;5119313;28;20031;-42
2022/01/27 06:49:44;;;;;;;58.92;26.88;;;-0.30;70.00;;;;;;5119098;28;20066;-35
2022/01/27 06:52:11;;;;;;;54.10;25.70;;;-0.30;69.70;;;;;;5118986;28;20026;-34
2022/01/27 06:54:37;;;;;;;60.38;28.80;;;-0.20;69.60;;;;;;5118983;28;20035;-34
2022/01/27 06:57:03;;;;;;;57.80;26.77;;;-0.30;69.70;;;;;;5117922;28;20016;-35
2022/01/27 06:59:29;;;;;;;57.17;24.40;;;-0.30;69.80;;;;;;5118797;28;20319;-39
2022/01/27 07:01:54;;;;;;;54.40;23.92;;;-0.30;69.70;;;;;;5118748;28;20110;-40
2022/01/27 07:04:20;;;;;;;56.30;24.27;;;-0.30;69.80;;;;;;5130280;27;20358;-34
2022/01/27 07:06:47;;;;;;;57.50;27.63;;;-0.30;69.70;;;;;;5138978;27;20103;-34
2022/01/27 07:09:13;;;;;;;57.85;26.00;;;-0.40;69.40;;;;;;5138434;27;20127;-33
2022/01/27 07:11:38;;;;;;;57.40;27.63;;;-0.40;69.00;;;;;;5138652;27;20054;-33
2022/01/27 07:14:04;;;;;;;56.88;25.45;;;-0.50;69.00;;;;;;5139127;27;20027;-34
2022/01/27 07:16:31;;;;;;;61.97;28.17;;;-0.50;69.00;;;;;;5136304;27;20031;-35
2022/01/27 07:18:56;;;;;;;62.72;28.42;;;-0.70;69.00;;;;;;5137916;27;20065;-39
2022/01/27 07:21:22;;;;;;;64.30;28.38;;;-0.70;69.20;;;;;;5138436;27;20055;-34
2022/01/27 07:23:48;;;;;;;58.15;25.17;;;-0.80;69.40;;;;;;5137986;27;20024;-34
2022/01/27 07:26:14;;;;;;;55.92;25.63;;;-0.90;69.70;;;;;;5138376;27;20020;-40
2022/01/27 07:28:41;;;;;;;55.95;25.90;;;-1.00;69.90;;;;;;5138815;27;20106;-40
2022/01/27 07:31:07;;;;;;;50.58;25.17;;;-1.00;70.20;;;;;;5138265;27;20102;-34
2022/01/27 07:33:32;;;;;;;48.88;22.75;;;-1.00;70.30;;;;;;5138622;27;20070;-37
2022/01/27 07:35:58;;;;;;;49.22;24.05;;;-1.00;70.10;;;;;;5138341;27;20066;-41
2022/01/27 07:38:26;;;;;;;47.20;24.90;;;-1.00;70.20;;;;;;5138758;27;20418;-40
2022/01/27 07:40:52;;;;;;;51.50;23.25;;;-0.90;70.40;;;;;;5138345;27;20046;-40
2022/01/27 07:43:18;;;;;;;47.85;22.60;;;-0.90;70.40;;;;;;5138173;27;20031;-41
2022/01/27 07:45:43;;;;;;;48.60;23.08;;;-0.90;70.50;;;;;;5138045;27;20027;-33
2022/01/27 07:48:09;;;;;;;50.42;21.15;;;-0.90;70.50;;;;;;5137894;27;20104;-41
2022/01/27 07:50:35;;;;;;;45.67;20.13;;;-0.70;70.70;;;;;;5119625;27;20039;-36
2022/01/27 07:53:01;;;;;;;42.03;23.10;;;-0.60;70.70;;;;;;5138417;27;20031;-41
2022/01/27 07:55:26;;;;;;;42.00;21.15;;;-0.60;70.50;;;;;;5137716;27;20057;-34
2022/01/27 07:57:52;;;;;;;50.85;22.05;;;-0.50;70.20;;;;;;5137785;27;20035;-39
2022/01/27 08:00:18;;;;;;;50.22;25.35;;;-0.40;69.70;;;;;;5137411;27;20092;-40
2022/01/27 08:02:45;;;;;;;42.97;21.42;;;-0.30;69.80;;;;;;5137898;27;20055;-39
2022/01/27 08:05:11;;;;;;;51.22;24.27;;;-0.20;69.30;;;;;;5137974;27;20092;-41
2022/01/27 08:07:37;;;;;;;45.40;22.38;;;-0.20;68.50;;;;;;5137379;27;20471;-36
2022/01/27 08:10:03;;;;;;;50.17;23.08;;;-0.20;68.30;;;;;;5137574;27;20084;-41
2022/01/27 08:12:28;;;;;;;46.20;21.90;;;-0.20;68.40;;;;;;5137483;27;20031;-41
2022/01/27 08:14:54;;;;;;;46.60;22.55;;;-0.20;68.40;;;;;;5137136;27;20080;-34
2022/01/27 08:17:20;;;;;;;49.47;21.23;;;-0.20;68.20;;;;;;5137435;27;20041;-33
2022/01/27 08:19:45;;;;;;;45.60;22.85;;;-0.20;68.10;;;;;;5137106;27;20126;-34
2022/01/27 08:22:11;;;;;;;50.25;22.05;;;-0.20;68.10;;;;;;5137475;27;20035;-38
2022/01/27 08:24:38;;;;;;;40.45;19.65;;;-0.20;68.30;;;;;;5136987;27;20118;-38
2022/01/27 08:27:06;;;;;;;42.53;21.30;;;-0.20;68.00;;;;;;5137557;27;20019;-33
2022/01/27 08:29:46;;;;;;;42.67;21.15;;;-0.10;67.80;;;;;;5136682;27;20478;-34
2022/01/27 08:32:17;;;;;;;40.80;20.45;;;-0.20;68.00;;;;;;5137447;27;20083;-36
2022/01/27 08:34:44;;;;;;;43.50;20.25;;;-0.10;68.20;;;;;;5137174;27;20110;-35
2022/01/27 08:37:12;;;;;;;46.75;21.83;;;-0.10;67.80;;;;;;5137415;27;20031;-36
2022/01/27 08:39:38;;;;;;;45.50;21.67;;;-0.10;67.50;;;;;;5137052;27;20027;-34
2022/01/27 08:42:05;;;;;;;46.17;21.75;;;0.00;67.70;;;;;;5137463;27;20027;-40
2022/01/27 08:44:30;;;;;;;42.30;20.38;;;0.00;67.30;;;;;;5136632;27;20296;-41
2022/01/27 08:46:56;;;;;;;48.22;22.13;;;0.10;67.30;;;;;;5136909;27;20106;-39
2022/01/27 08:49:25;;;;;;;42.70;20.08;;;0.10;66.90;;;;;;5136720;27;20059;-34
2022/01/27 08:51:51;;;;;;;48.10;21.42;;;0.00;66.80;;;;;;5137165;27;20111;-34
2022/01/27 08:54:17;;;;;;;44.83;20.38;;;0.10;66.80;;;;;;5136805;27;20035;-40
2022/01/27 08:56:43;;;;;;;42.90;20.60;;;0.10;67.30;;;;;;5136438;27;20023;-34
2022/01/27 08:59:09;;;;;;;36.95;20.20;;;0.20;67.30;;;;;;5136470;27;20062;-40
2022/01/27 09:01:35;;;;;;;36.95;18.90;;;0.30;67.30;;;;;;5135936;27;20070;-41
2022/01/27 09:04:01;;;;;;;44.33;20.60;;;0.40;66.60;;;;;;5136722;27;20027;-41
2022/01/27 09:06:30;;;;;;;35.50;18.35;;;0.40;66.70;;;;;;5117777;27;20111;-41
2022/01/27 09:08:56;;;;;;;43.95;19.85;;;0.50;66.00;;;;;;5114485;28;20112;-36
2022/01/27 09:11:23;;;;;;;41.65;19.70;;;0.50;66.10;;;;;;5115921;28;20043;-34
2022/01/27 09:13:49;;;;;;;39.53;18.50;;;0.60;66.00;;;;;;5116216;28;20023;-33
2022/01/27 09:16:16;;;;;;;40.08;19.48;;;0.70;65.80;;;;;;5115736;28;20119;-34
2022/01/27 09:18:41;;;;;;;37.92;18.48;;;0.70;65.50;;;;;;5114870;28;20035;-38
2022/01/27 09:21:15;;;;;;;40.05;19.02;;;0.70;65.30;;;;;;5114558;28;20042;-33
2022/01/27 09:23:41;;;;;;;38.15;17.85;;;0.70;64.80;;;;;;5116150;28;20036;-34
2022/01/27 09:26:21;;;;;;;38.25;19.17;;;0.80;64.60;;;;;;5115726;28;20032;-35
2022/01/27 09:28:48;;;;;;;38.45;17.77;;;0.70;64.90;;;;;;5115626;28;20032;-40
2022/01/27 09:31:13;;;;;;;39.55;18.63;;;0.80;65.00;;;;;;5115727;28;20032;-40
2022/01/27 09:33:39;;;;;;;39.15;17.98;;;0.90;65.00;;;;;;5116048;28;20036;-34
2022/01/27 09:36:11;;;;;;;35.75;17.25;;;0.90;65.10;;;;;;5115453;28;20099;-35
2022/01/27 09:38:36;;;;;;;33.22;17.17;;;1.00;64.70;;;;;;5115863;28;20035;-41
2022/01/27 09:41:03;;;;;;;35.28;17.15;;;1.00;64.70;;;;;;5115352;28;20042;-34
2022/01/27 09:43:29;;;;;;;34.17;16.45;;;1.10;64.10;;;;;;5116023;28;20031;-34
2022/01/27 09:45:57;;;;;;;28.33;14.50;;;1.10;63.20;;;;;;5115551;28;20042;-34
2022/01/27 09:48:26;;;;;;;25.00;13.65;;;1.10;63.10;;;;;;5115890;28;20032;-38
2022/01/27 09:51:22;;;;;;;29.40;15.00;;;1.00;62.90;;;;;;5115383;28;20455;-40
2022/01/27 09:53:38;;;;;;;27.10;15.10;;;1.00;62.90;;;;;;5115803;28;20463;-34
2022/01/27 09:56:04;;;;;;;29.38;14.38;;;0.90;63.20;;;;;;5115824;28;20070;-38
2022/01/27 09:58:30;;;;;;;28.98;16.45;;;0.90;63.20;;;;;;5115599;28;20035;-34
2022/01/27 10:00:56;;;;;;;35.38;14.13;;;0.90;63.40;;;;;;5115257;28;20460;-34
2022/01/27 10:03:21;;;;;;;26.77;14.18;;;0.90;63.00;;;;;;5115648;28;20046;-41
2022/01/27 10:05:47;;;;;;;24.27;13.10;;;0.90;63.40;;;;;;5115161;28;20047;-40
2022/01/27 10:08:19;;;;;;;31.23;13.95;;;0.90;63.20;;;;;;5123748;28;20054;-35
2022/01/27 10:10:50;;;;;;;25.17;12.65;;;0.90;63.10;;;;;;5135670;28;20035;-34
2022/01/27 10:13:34;;;;;;;;;;;0.90;63.20;;;;;;5136677;28;20031;-35
2022/01/27 10:16:01;;;;;;;28.70;12.90;;;0.90;63.00;;;;;;5135967;28;19914;-39
2022/01/27 10:18:34;;;;;;;20.65;11.18;;;0.90;63.40;;;;;;5135984;28;20439;-35
2022/01/27 10:21:05;;;;;;;22.35;12.00;;;0.90;63.30;;;;;;5136136;28;20115;-34
2022/01/27 10:23:35;;;;;;;;;;;1.00;63.30;;;;;;5136274;28;20062;-37
2022/01/27 10:26:13;;;;;;;25.25;12.65;;;1.00;63.40;;;;;;5134603;28;19919;-34
2022/01/27 10:28:48;;;;;;;22.33;11.40;;;1.10;63.50;;;;;;5133999;28;20396;-36
2022/01/27 10:31:23;;;;;;;20.08;10.57;;;1.20;63.40;;;;;;5138025;27;20031;-39
2022/01/27 10:34:01;;;;;;;22.65;10.68;;;1.30;62.60;;;;;;5138793;27;20038;-35
2022/01/27 10:36:31;;;;;;;18.77;9.98;;;1.40;62.60;;;;;;5139642;27;20350;-37
2022/01/27 10:39:03;;;;;;;18.13;9.27;;;1.50;62.20;;;;;;5139859;27;20031;-38
2022/01/27 10:41:30;;;;;;;20.15;10.50;;;1.60;62.00;;;;;;5138518;27;20019;-36
2022/01/27 10:44:14;;;;;;;18.40;9.98;;;1.60;62.30;;;;;;5138522;27;20075;-35
2022/01/27 10:46:58;;;;;;;19.00;9.27;;;1.80;62.10;;;;;;5139347;27;20046;-40
2022/01/27 10:49:34;;;;;;;19.10;10.70;;;1.80;60.90;;;;;;5138865;27;20140;-41
2022/01/27 10:52:00;;;;;;;16.15;9.23;;;1.90;61.10;;;;;;5138955;27;20031;-41
2022/01/27 10:54:39;;;;;;;18.50;9.70;;;2.00;61.30;;;;;;5138840;27;20046;-39
2022/01/27 10:57:07;;;;;;;20.23;9.63;;;2.00;60.80;;;;;;5139366;27;20029;-44
2022/01/27 10:59:34;;;;;;;25.00;11.30;;;2.10;60.70;;;;;;5138628;27;20043;-44
2022/01/27 11:02:12;;;;;;;25.25;12.00;;;2.10;60.10;;;;;;5139064;27;20069;-38
2022/01/27 11:04:43;;;;;;;24.70;10.70;;;2.10;59.70;;;;;;5138841;27;20378;-44
2022/01/27 11:07:11;;;;;;;18.63;10.00;;;2.10;59.70;;;;;;5139144;27;20016;-32
2022/01/27 11:09:41;;;;;;;22.52;9.77;;;2.10;59.80;;;;;;5138706;27;20070;-34
2022/01/27 11:12:12;;;;;;;17.90;8.70;;;2.10;59.70;;;;;;5138840;27;20023;-34
2022/01/27 11:14:39;;;;;;;19.13;9.60;;;2.10;60.20;;;;;;5138549;27;20134;-37
2022/01/27 11:17:06;;;;;;;25.15;10.30;;;2.10;59.80;;;;;;5139052;27;20034;-37
2022/01/27 11:27:31;;;;;;;17.17;9.43;;;2.00;59.70;;;;;;5138639;27;20019;-37
2022/01/27 11:30:06;;;;;;;14.75;8.40;;;2.00;59.90;;;;;;5138396;27;20046;-37
2022/01/27 11:32:45;;;;;;;17.73;8.60;;;2.00;59.70;;;;;;5138463;27;20046;-34
2022/01/27 11:35:23;;;;;;;18.23;8.65;;;2.00;59.70;;;;;;5138260;27;20353;-33
2022/01/27 11:38:01;;;;;;;18.38;8.73;;;2.00;59.60;;;;;;5138396;27;20471;-44
2022/01/27 11:40:39;;;;;;;15.95;8.95;;;2.00;60.10;;;;;;5138379;27;20323;-33
2022/01/27 11:43:07;;;;;;;17.08;8.88;;;2.10;60.30;;;;;;5137696;27;20016;-35
2022/01/27 11:45:44;;;;;;;16.77;8.27;;;2.10;59.80;;;;;;5138358;27;20036;-33
2022/01/27 11:48:11;;;;;;;20.40;10.63;;;2.00;59.70;;;;;;5138088;27;20023;-34
2022/01/27 11:50:57;;;;;;;19.88;10.35;;;2.00;59.70;;;;;;5138092;27;20035;-45
2022/01/27 11:53:45;;;;;;;20.48;8.70;;;2.00;59.80;;;;;;5138313;27;20027;-44
2022/01/27 11:56:35;;;;;;;17.15;8.77;;;2.00;59.70;;;;;;5137930;27;20039;-34
2022/01/27 11:59:04;;;;;;;16.38;8.75;;;2.00;60.10;;;;;;5138555;27;20392;-44
2022/01/27 12:01:37;;;;;;;14.48;7.55;;;2.00;60.10;;;;;;5137746;27;20079;-44
2022/01/27 12:04:06;;;;;;;17.05;8.07;;;2.00;60.00;;;;;;5138541;27;20531;-37
2022/01/27 12:06:40;;;;;;;14.93;8.38;;;1.90;60.30;;;;;;5137554;27;20427;-35
2022/01/27 12:09:20;;;;;;;15.00;7.63;;;1.90;60.40;;;;;;5137581;27;20082;-33
2022/01/27 12:12:00;;;;;;;18.02;7.80;;;1.90;60.70;;;;;;5137755;27;20027;-42
2022/01/27 12:14:36;;;;;;;17.83;8.35;;;1.80;60.90;;;;;;5137564;27;20046;-43
2022/01/27 12:17:10;;;;;;;15.55;7.55;;;1.80;61.10;;;;;;5137848;27;20178;-42
2022/01/27 12:19:55;;;;;;;15.60;8.30;;;1.70;61.30;;;;;;5137437;27;20039;-32
2022/01/27 12:22:44;;;;;;;13.10;7.70;;;1.70;61.40;;;;;;5137951;27;20123;-34
2022/01/27 12:25:12;;;;;;;13.55;7.30;;;1.70;61.50;;;;;;5103372;27;20027;-42
2022/01/27 12:27:39;;;;;;;31.80;8.45;;;1.60;61.60;;;;;;5137338;27;20035;-43
2022/01/27 12:30:09;;;;;;;17.70;7.82;;;1.60;61.70;;;;;;5137250;27;20114;-32
2022/01/27 12:32:35;;;;;;;16.45;8.38;;;1.60;61.90;;;;;;5136939;27;20024;-42
2022/01/27 12:35:12;;;;;;;17.45;7.78;;;1.50;62.30;;;;;;5137144;27;20084;-42
2022/01/27 12:37:46;;;;;;;19.88;8.95;;;1.50;62.30;;;;;;5137278;27;20031;-43
2022/01/27 12:40:18;;;;;;;13.60;7.63;;;1.60;62.60;;;;;;5136913;27;20039;-35
2022/01/27 12:43:02;;;;;;;15.23;8.00;;;1.60;62.50;;;;;;5137255;27;20038;-36
2022/01/27 12:45:34;;;;;;;16.63;8.23;;;1.60;62.40;;;;;;5136850;27;20110;-42
2022/01/27 12:48:06;;;;;;;17.80;7.88;;;1.50;62.40;;;;;;5137084;27;20027;-32
2022/01/27 12:50:34;;;;;;;15.23;8.20;;;1.50;62.50;;;;;;5137051;27;20326;-32
2022/01/27 12:53:03;;;;;;;18.73;8.68;;;1.40;62.60;;;;;;5136518;27;20046;-42
2022/01/27 12:55:34;;;;;;;17.45;7.65;;;1.40;62.80;;;;;;5136162;27;20123;-43
2022/01/27 12:58:05;;;;;;;15.35;8.63;;;1.40;62.90;;;;;;5136919;27;20031;-32
2022/01/27 13:00:40;;;;;;;14.43;7.68;;;1.30;63.10;;;;;;5136910;27;20035;-32
2022/01/27 13:03:06;;;;;;;18.58;8.32;;;1.30;63.40;;;;;;5136952;27;20027;-42
2022/01/27 13:05:39;;;;;;;13.57;7.35;;;1.30;63.50;;;;;;5136854;27;20031;-33
2022/01/27 13:08:11;;;;;;;14.60;7.95;;;1.30;63.60;;;;;;5136361;27;20103;-33
2022/01/27 13:10:49;;;;;;;17.35;9.00;;;1.20;63.60;;;;;;5136011;27;20051;-32
2022/01/27 13:13:20;;;;;;;15.88;8.48;;;1.20;63.80;;;;;;5118211;27;20429;-33
2022/01/27 13:15:54;;;;;;;16.67;8.18;;;1.10;63.90;;;;;;5136820;27;20087;-42
2022/01/27 13:18:27;;;;;;;15.10;7.60;;;1.10;64.10;;;;;;5136470;27;20242;-33
2022/01/27 13:20:56;;;;;;;15.57;7.45;;;1.10;64.30;;;;;;5136528;27;20156;-33
2022/01/27 13:25:55;;;;;;;16.90;7.93;;;1.00;64.60;;;;;;5136776;27;20027;-34
2022/01/27 13:28:28;;;;;;;15.38;7.72;;;1.00;64.80;;;;;;5136792;27;20027;-44
2022/01/27 13:30:58;;;;;;;16.77;7.85;;;1.00;65.10;;;;;;5136112;27;20114;-34